Jackson Hole Airport
KJAC : now visible

Airfield :











YOU CAN JOIN US ON...

 
LOGIN :

Register | Disclaimer

   EN    FR    IT 

 









Legend :    VFR   Marginal VFR   IFR   Intensive IFR   Very Intensive IFR
Visi :
Ceiling :
>= 8 km
>= 3000ft
5 to 8 km
1000 to 3000 ft
1500m to 5 km
500 to 1000 ft
800 to 1500m
200 to 500 ft
< 800m
< 200 ft
Symbols :   Thunderstorms  Fog  Heavy snow  Heavy precipitations  Wind > 20 kt






- Airport Elevation : 6451 ft
- IATA code : JAC


KJAC - Jackson Hole

CURRENT METAR :
  • 161056Z AUTO 00000KT 10SM SCT100 09/06 A3028 RMK AO2 SLP203 T00940056

EXPIRED METARs :
  • 160956Z AUTO 04004KT 10SM CLR 10/07 A3027 RMK AO2 SLP197 T01000067
  • 160856Z AUTO 35005KT 10SM CLR 11/07 A3026 RMK AO2 SLP192 T01060072 51008
  • 160756Z AUTO 03004KT 10SM CLR 11/07 A3025 RMK AO2 SLP187 T01110072
  • 160656Z AUTO 00000KT 10SM CLR 11/07 A3025 RMK AO2 SLP191 T01060067 402500094

TAF KJAC
Valid from the 16 at 12:00 until the 17 at 12:00 UTC


161120Z 1612/1712 02005KT P6SM FEW120
FM161400 VRB04KT P6SM SKC
FM161900 20007KT P6SM FEW120
FM162100 25008KT P6SM FEW080 SCT120
FM170400 02007KT P6SM FEW120
KZLC FIR / North America



MET'MAP, your aeronautical weather chart ! - Copyright ORBIFLY December 2007 - Disclaimer

ORBIFLY MET'MAP TEAM :

Programming & Development : Alexandra Zaïnal
Original concept : Baudouin d'Aumeries
Technical & hardware support : Manuel Goepfert
Assistance : Marc-Olivier Méhu




SOURCES & CREDITS :

   NOAA       Earth
Advisory